createdAt,value
2017-12-06T00:01:08.380Z,7.90
2017-12-06T00:02:35.646Z,7.91
2017-12-06T00:04:03.893Z,7.90
2017-12-06T00:05:30.021Z,7.89
2017-12-06T00:06:57.338Z,7.88
2017-12-06T00:08:24.629Z,7.88
2017-12-06T00:09:53.035Z,7.87
2017-12-06T00:11:19.408Z,7.84
2017-12-06T00:12:47.559Z,7.84
2017-12-06T00:14:13.805Z,7.83
2017-12-06T00:15:41.229Z,7.82
2017-12-06T00:17:08.362Z,7.81
2017-12-06T00:18:35.656Z,7.80
2017-12-06T00:20:02.944Z,7.81
2017-12-06T00:21:30.162Z,7.82
2017-12-06T00:22:58.389Z,7.82
2017-12-06T00:24:24.830Z,7.80
2017-12-06T00:25:52.209Z,7.79
2017-12-06T00:27:19.391Z,7.77
2017-12-06T00:28:46.602Z,7.79
2017-12-06T00:30:14.851Z,7.78
2017-12-06T00:31:41.140Z,7.77
2017-12-06T00:33:09.333Z,7.76
2017-12-06T00:34:35.573Z,7.77
2017-12-06T00:36:02.804Z,7.77
2017-12-06T00:37:31.189Z,7.76
2017-12-06T00:38:58.496Z,7.75
2017-12-06T00:40:25.596Z,7.74
2017-12-06T00:41:51.967Z,7.76
2017-12-06T00:43:19.398Z,7.75
2017-12-06T00:44:46.754Z,7.73
2017-12-06T00:46:14.998Z,7.74
2017-12-06T00:47:41.212Z,7.75
2017-12-06T00:49:08.591Z,7.75
2017-12-06T00:50:36.957Z,7.76
2017-12-06T00:52:04.121Z,7.79
2017-12-06T00:53:30.295Z,7.81
2017-12-06T00:54:57.542Z,7.84
2017-12-06T00:56:25.906Z,7.83
2017-12-06T00:57:52.214Z,7.82
2017-12-06T00:59:19.637Z,7.81
2017-12-06T01:00:47.017Z,7.79
2017-12-06T01:02:14.122Z,7.78
2017-12-06T01:03:41.459Z,7.77
2017-12-06T01:05:09.815Z,7.77
2017-12-06T01:06:36.078Z,7.77
2017-12-06T01:08:03.384Z,7.77
2017-12-06T01:09:31.607Z,7.76
2017-12-06T01:10:57.743Z,7.75
2017-12-06T01:12:25.072Z,7.77
2017-12-06T01:13:52.285Z,7.77
2017-12-06T01:15:19.637Z,7.75
2017-12-06T01:16:47.824Z,7.73
2017-12-06T01:18:15.133Z,7.73
2017-12-06T01:19:41.355Z,7.73
2017-12-06T01:21:08.554Z,7.75
2017-12-06T01:22:35.965Z,7.75
2017-12-06T01:24:03.268Z,7.77
2017-12-06T01:25:30.390Z,7.78
2017-12-06T01:26:57.563Z,7.79
2017-12-06T01:28:24.994Z,7.81
2017-12-06T01:29:52.466Z,7.82
2017-12-06T01:31:20.991Z,7.83
2017-12-06T01:32:47.080Z,7.83
2017-12-06T01:34:15.390Z,7.83
2017-12-06T01:35:42.520Z,7.82
2017-12-06T01:37:08.970Z,7.81
2017-12-06T01:38:36.113Z,7.81
2017-12-06T01:40:03.391Z,7.84
2017-12-06T01:41:31.731Z,7.83
2017-12-06T01:42:58.153Z,7.83
2017-12-06T01:44:25.461Z,7.84
2017-12-06T01:45:53.695Z,7.81
2017-12-06T01:47:21.046Z,7.78
2017-12-06T01:48:48.400Z,7.78
2017-12-06T01:50:14.575Z,7.79
2017-12-06T01:51:41.806Z,7.82
2017-12-06T01:53:10.061Z,7.82
2017-12-06T01:54:37.522Z,7.81
2017-12-06T01:56:03.739Z,7.80
2017-12-06T01:57:31.955Z,7.82
2017-12-06T01:58:58.049Z,7.83
2017-12-06T02:00:25.540Z,7.82
2017-12-06T02:01:52.835Z,7.83
2017-12-06T02:03:20.211Z,7.83
2017-12-06T02:04:48.659Z,7.83
2017-12-06T02:06:14.914Z,7.83
2017-12-06T02:07:42.189Z,7.84
2017-12-06T02:09:09.565Z,7.87
2017-12-06T02:10:37.859Z,7.88
2017-12-06T02:12:04.128Z,7.88
2017-12-06T02:13:31.326Z,7.85
2017-12-06T02:14:58.706Z,7.84
2017-12-06T02:16:25.893Z,7.86
2017-12-06T02:17:53.182Z,7.84
2017-12-06T02:19:21.646Z,7.82
2017-12-06T02:20:49.066Z,7.80
2017-12-06T02:22:15.313Z,7.78
2017-12-06T02:23:42.592Z,7.77
2017-12-06T02:25:09.986Z,7.76
2017-12-06T02:26:38.394Z,7.75
2017-12-06T02:28:04.668Z,7.73
2017-12-06T02:29:31.901Z,7.68
2017-12-06T02:31:00.155Z,7.64
2017-12-06T02:32:27.499Z,7.63
2017-12-06T02:33:53.962Z,7.60
2017-12-06T02:35:22.141Z,7.59
2017-12-06T02:36:48.592Z,7.58
2017-12-06T02:38:15.830Z,7.56
2017-12-06T02:39:43.242Z,7.55
2017-12-06T02:41:11.619Z,7.56
2017-12-06T02:42:38.929Z,7.56
2017-12-06T02:44:05.235Z,7.55
2017-12-06T02:45:32.366Z,7.56
2017-12-06T02:47:00.944Z,7.54
2017-12-06T02:48:27.268Z,7.51
2017-12-06T02:49:54.595Z,7.50
2017-12-06T02:51:21.869Z,7.50
2017-12-06T02:52:49.002Z,7.47
2017-12-06T02:54:17.512Z,7.45
2017-12-06T02:55:43.795Z,7.42
2017-12-06T02:57:11.105Z,7.42
2017-12-06T02:58:39.356Z,7.42
2017-12-06T03:00:05.645Z,7.41
2017-12-06T03:01:32.740Z,7.41
2017-12-06T03:03:00.175Z,7.39
2017-12-06T03:04:27.497Z,7.39
2017-12-06T03:05:54.948Z,7.35
2017-12-06T03:07:22.246Z,7.33
2017-12-06T03:08:49.609Z,7.33
2017-12-06T03:10:16.915Z,7.33
2017-12-06T03:11:44.096Z,7.31
2017-12-06T03:13:11.258Z,7.29
2017-12-06T03:14:38.403Z,7.29
2017-12-06T03:16:05.673Z,7.29
2017-12-06T03:17:33.828Z,7.30
2017-12-06T03:19:00.188Z,7.31
2017-12-06T03:20:27.528Z,7.32
2017-12-06T03:21:55.874Z,7.30
2017-12-06T03:23:22.180Z,7.31
2017-12-06T03:24:49.463Z,7.33
2017-12-06T03:26:16.772Z,7.32
2017-12-06T03:27:44.121Z,7.34
2017-12-06T03:29:11.369Z,7.34
2017-12-06T03:30:38.647Z,7.35
2017-12-06T03:32:05.902Z,7.35
2017-12-06T03:33:34.237Z,7.36
2017-12-06T03:35:00.510Z,7.36
2017-12-06T03:36:28.746Z,7.34
2017-12-06T03:37:54.851Z,7.34
2017-12-06T03:39:22.917Z,7.35
2017-12-06T03:40:49.213Z,7.39
2017-12-06T03:42:17.737Z,7.39
2017-12-06T03:43:43.738Z,7.39
2017-12-06T03:45:11.048Z,7.39
2017-12-06T03:46:39.121Z,7.39
2017-12-06T03:48:05.294Z,7.41
2017-12-06T03:49:32.110Z,7.42
2017-12-06T03:50:59.454Z,7.42
2017-12-06T03:52:26.784Z,7.43
2017-12-06T03:53:53.883Z,7.43
2017-12-06T03:55:21.271Z,7.42
2017-12-06T03:56:48.705Z,7.42
2017-12-06T03:58:16.960Z,7.42
2017-12-06T03:59:43.391Z,7.40
2017-12-06T04:01:10.614Z,7.39
2017-12-06T04:02:37.905Z,7.41
2017-12-06T04:04:05.143Z,7.40
2017-12-06T04:05:32.354Z,7.40
2017-12-06T04:06:59.750Z,7.41
2017-12-06T04:08:26.978Z,7.43
2017-12-06T04:09:54.341Z,7.41
2017-12-06T04:11:22.524Z,7.39
2017-12-06T04:12:48.679Z,7.39
2017-12-06T04:14:16.853Z,7.39
2017-12-06T04:15:43.206Z,7.38
2017-12-06T04:17:11.475Z,7.39
2017-12-06T04:18:37.808Z,7.37
2017-12-06T04:20:05.132Z,7.36
2017-12-06T04:21:33.390Z,7.37
2017-12-06T04:22:59.513Z,7.38
2017-12-06T04:24:28.031Z,7.38
2017-12-06T04:25:54.321Z,7.39
2017-12-06T04:27:22.759Z,7.41
2017-12-06T04:28:48.987Z,7.40
2017-12-06T04:30:16.435Z,7.39
2017-12-06T04:31:44.792Z,7.39
2017-12-06T04:33:10.830Z,7.38
2017-12-06T04:34:38.205Z,7.39
2017-12-06T04:36:05.476Z,7.40
2017-12-06T04:37:33.574Z,7.40
2017-12-06T04:38:59.934Z,7.38
2017-12-06T04:40:27.026Z,7.34
2017-12-06T04:41:54.317Z,7.32
2017-12-06T04:43:21.503Z,7.32
2017-12-06T04:44:48.736Z,7.31
2017-12-06T04:46:15.932Z,7.29
2017-12-06T04:47:43.233Z,7.26
2017-12-06T04:49:10.633Z,7.25
2017-12-06T04:50:37.879Z,7.22
2017-12-06T04:52:05.171Z,7.19
2017-12-06T04:53:33.318Z,7.17
2017-12-06T04:55:00.584Z,7.15
2017-12-06T04:56:26.732Z,7.14
2017-12-06T04:57:54.132Z,7.14
2017-12-06T04:59:21.236Z,7.13
2017-12-06T05:00:48.556Z,7.11
2017-12-06T05:02:15.875Z,7.10
2017-12-06T05:03:43.221Z,7.11
2017-12-06T05:05:11.615Z,7.12
2017-12-06T05:06:38.830Z,7.12
2017-12-06T05:08:05.025Z,7.12
2017-12-06T05:09:33.252Z,7.11
2017-12-06T05:11:00.583Z,7.11
2017-12-06T05:12:26.876Z,7.09
2017-12-06T05:13:55.411Z,7.08
2017-12-06T05:15:22.556Z,7.08
2017-12-06T05:16:49.016Z,7.07
2017-12-06T05:18:16.437Z,7.07
2017-12-06T05:19:43.837Z,7.08
2017-12-06T05:21:12.133Z,7.07
2017-12-06T05:22:38.349Z,7.09
2017-12-06T05:24:05.692Z,7.10
2017-12-06T05:25:32.816Z,7.11
2017-12-06T05:27:00.142Z,7.10
2017-12-06T05:28:27.302Z,7.12
2017-12-06T05:29:54.639Z,7.12
2017-12-06T05:31:21.998Z,7.12
2017-12-06T05:32:49.438Z,7.09
2017-12-06T05:34:16.817Z,7.06
2017-12-06T05:35:44.069Z,7.02
2017-12-06T05:37:11.248Z,7.02
2017-12-06T05:38:38.539Z,7.00
2017-12-06T05:40:06.720Z,6.97
2017-12-06T05:41:33.937Z,6.95
2017-12-06T05:43:00.135Z,6.96
2017-12-06T05:44:27.561Z,6.94
2017-12-06T05:45:55.630Z,6.93
2017-12-06T05:47:23.003Z,6.94
2017-12-06T05:48:49.340Z,6.93
2017-12-06T05:50:16.538Z,6.92
2017-12-06T05:51:44.880Z,6.89
2017-12-06T05:53:11.025Z,6.90
2017-12-06T05:54:38.237Z,6.91
2017-12-06T05:56:05.552Z,6.94
2017-12-06T05:57:33.722Z,6.95
2017-12-06T05:59:00.996Z,6.94
2017-12-06T06:00:27.000Z,6.91
2017-12-06T06:01:55.287Z,6.90
2017-12-06T06:03:22.660Z,6.90
2017-12-06T06:04:48.890Z,6.92
2017-12-06T06:06:16.223Z,6.90
2017-12-06T06:07:43.518Z,6.89
2017-12-06T06:09:11.822Z,6.91
2017-12-06T06:10:39.073Z,6.92
2017-12-06T06:12:06.439Z,6.92
2017-12-06T06:13:32.502Z,6.91
2017-12-06T06:14:59.784Z,6.91
2017-12-06T06:16:27.787Z,6.92
2017-12-06T06:17:55.070Z,6.94
2017-12-06T06:19:21.158Z,6.96
2017-12-06T06:20:49.506Z,6.96
2017-12-06T06:22:16.601Z,6.97
2017-12-06T06:23:42.787Z,7.00
2017-12-06T06:25:10.039Z,7.00
2017-12-06T06:26:38.345Z,7.02
2017-12-06T06:28:04.634Z,7.00
2017-12-06T06:29:32.113Z,6.99
2017-12-06T06:30:59.498Z,6.99
2017-12-06T06:32:26.699Z,6.98
2017-12-06T06:33:54.994Z,6.97
2017-12-06T06:35:21.332Z,6.96
2017-12-06T06:36:49.868Z,6.96
2017-12-06T06:38:16.860Z,6.95
2017-12-06T06:39:43.439Z,6.93
2017-12-06T06:41:10.672Z,6.94
2017-12-06T06:42:39.081Z,6.94
2017-12-06T06:44:05.272Z,6.93
2017-12-06T06:45:32.452Z,6.93
2017-12-06T06:46:59.790Z,6.92
2017-12-06T06:48:27.140Z,6.92
2017-12-06T06:49:54.449Z,6.92
2017-12-06T06:51:21.566Z,6.94
2017-12-06T06:52:48.899Z,6.94
2017-12-06T06:54:16.261Z,6.92
2017-12-06T06:55:43.324Z,6.92
2017-12-06T06:57:10.651Z,6.92
2017-12-06T06:58:37.931Z,6.93
2017-12-06T07:00:05.169Z,6.90
2017-12-06T07:01:32.227Z,6.89
2017-12-06T07:03:00.826Z,6.88
2017-12-06T07:04:27.125Z,6.87
2017-12-06T07:05:54.511Z,6.85
2017-12-06T07:07:21.719Z,6.86
2017-12-06T07:08:49.055Z,6.85
2017-12-06T07:10:17.486Z,6.85
2017-12-06T07:11:44.780Z,6.87
2017-12-06T07:13:12.120Z,6.90
2017-12-06T07:14:39.460Z,6.89
2017-12-06T07:16:06.712Z,6.90
2017-12-06T07:17:33.032Z,6.88
2017-12-06T07:19:01.363Z,6.89
2017-12-06T07:20:28.820Z,6.86
2017-12-06T07:21:55.143Z,6.85
2017-12-06T07:23:22.451Z,6.85
2017-12-06T07:24:49.867Z,6.86
2017-12-06T07:26:17.148Z,6.85
2017-12-06T07:27:44.418Z,6.85
2017-12-06T07:29:11.822Z,6.86
2017-12-06T07:30:38.935Z,6.86
2017-12-06T07:32:07.157Z,6.86
2017-12-06T07:33:34.478Z,6.85
2017-12-06T07:35:00.716Z,6.86
2017-12-06T07:36:28.037Z,6.89
2017-12-06T07:37:55.249Z,6.92
2017-12-06T07:39:23.608Z,6.92
2017-12-06T07:40:49.918Z,6.92
2017-12-06T07:42:17.299Z,6.92
2017-12-06T07:43:44.545Z,6.93
2017-12-06T07:45:11.778Z,6.94
2017-12-06T07:46:39.173Z,6.92
2017-12-06T07:48:06.413Z,6.92
2017-12-06T07:49:33.644Z,6.94
2017-12-06T07:51:01.106Z,6.95
2017-12-06T07:52:28.242Z,6.95
2017-12-06T07:53:55.501Z,6.98
2017-12-06T07:55:22.905Z,6.97
2017-12-06T07:56:50.239Z,6.97
2017-12-06T07:58:17.614Z,6.97
2017-12-06T07:59:44.919Z,6.98
2017-12-06T08:01:13.057Z,6.99
2017-12-06T08:02:39.448Z,7.03
2017-12-06T08:04:07.676Z,7.07
2017-12-06T08:05:33.892Z,7.09
2017-12-06T08:07:02.446Z,7.08
2017-12-06T08:08:29.788Z,7.10
2017-12-06T08:09:55.803Z,7.10
2017-12-06T08:11:22.981Z,7.08
2017-12-06T08:12:50.226Z,7.09
2017-12-06T08:14:17.576Z,7.09
2017-12-06T08:15:44.728Z,7.10
2017-12-06T08:17:12.134Z,7.10
2017-12-06T08:18:40.328Z,7.12
2017-12-06T08:20:06.705Z,7.13
2017-12-06T08:21:33.880Z,7.15
2017-12-06T08:23:02.154Z,7.15
2017-12-06T08:24:29.558Z,7.15
2017-12-06T08:25:55.752Z,7.14
2017-12-06T08:27:24.059Z,7.15
2017-12-06T08:28:51.281Z,7.13
2017-12-06T08:30:17.455Z,7.15
2017-12-06T08:31:45.605Z,7.16
2017-12-06T08:33:11.999Z,7.17
2017-12-06T08:34:39.225Z,7.16
2017-12-06T08:36:06.220Z,7.17
2017-12-06T08:37:34.513Z,7.18
2017-12-06T08:39:00.736Z,7.18
2017-12-06T08:40:28.081Z,7.15
2017-12-06T08:41:55.279Z,7.14
2017-12-06T08:43:22.503Z,7.13
2017-12-06T08:44:49.839Z,7.14
2017-12-06T08:46:17.119Z,7.15
2017-12-06T08:47:44.416Z,7.19
2017-12-06T08:49:11.804Z,7.19
2017-12-06T08:50:38.965Z,7.19
2017-12-06T08:52:06.318Z,7.21
2017-12-06T08:53:33.521Z,7.23
2017-12-06T08:55:00.716Z,7.24
2017-12-06T08:56:28.013Z,7.24
2017-12-06T08:57:56.133Z,7.22
2017-12-06T08:59:22.510Z,7.22
2017-12-06T09:00:50.827Z,7.24
2017-12-06T09:02:18.070Z,7.25
2017-12-06T09:03:45.309Z,7.26
2017-12-06T09:05:12.550Z,7.25
2017-12-06T09:06:38.747Z,7.26
2017-12-06T09:08:05.799Z,7.28
2017-12-06T09:09:33.000Z,7.29
2017-12-06T09:11:00.383Z,7.29
2017-12-06T09:12:27.758Z,7.29
2017-12-06T09:13:55.033Z,7.30
2017-12-06T09:15:22.425Z,7.30
2017-12-06T09:16:50.636Z,7.29
2017-12-06T09:18:16.999Z,7.31
2017-12-06T09:19:44.368Z,7.33
2017-12-06T09:21:12.759Z,7.35
2017-12-06T09:22:39.187Z,7.37
2017-12-06T09:24:06.397Z,7.37
2017-12-06T09:25:33.610Z,7.39
2017-12-06T09:27:00.791Z,7.41
2017-12-06T09:28:28.140Z,7.41
2017-12-06T09:29:55.535Z,7.44
2017-12-06T09:31:22.933Z,7.44
2017-12-06T09:32:51.380Z,7.44
2017-12-06T09:34:17.493Z,7.44
2017-12-06T09:35:44.836Z,7.45
2017-12-06T09:37:13.105Z,7.46
2017-12-06T09:38:39.531Z,7.46
2017-12-06T09:40:06.838Z,7.46
2017-12-06T09:41:33.989Z,7.47
2017-12-06T09:43:02.238Z,7.49
2017-12-06T09:44:29.719Z,7.50
2017-12-06T09:45:56.948Z,7.51
2017-12-06T09:47:24.194Z,7.53
2017-12-06T09:48:50.572Z,7.53
2017-12-06T09:50:17.963Z,7.53
2017-12-06T09:51:46.214Z,7.54
2017-12-06T09:53:12.412Z,7.54
2017-12-06T09:54:39.732Z,7.55
2017-12-06T09:56:07.019Z,7.56
2017-12-06T09:57:34.131Z,7.58
2017-12-06T09:59:01.576Z,7.58
2017-12-06T10:00:28.798Z,7.59
2017-12-06T10:01:57.229Z,7.60
2017-12-06T10:03:24.517Z,7.60
2017-12-06T10:04:50.734Z,7.58
2017-12-06T10:06:18.242Z,7.57
2017-12-06T10:07:46.525Z,7.59
2017-12-06T10:09:12.878Z,7.60
2017-12-06T10:10:40.095Z,7.60
2017-12-06T10:12:13.288Z,7.61
2017-12-06T10:13:34.599Z,7.62
2017-12-06T10:15:02.740Z,7.63
2017-12-06T10:16:29.049Z,7.66
2017-12-06T10:17:57.519Z,7.65
2017-12-06T10:19:23.797Z,7.66
2017-12-06T10:20:51.011Z,7.66
2017-12-06T10:22:19.190Z,7.66
2017-12-06T10:23:46.539Z,7.66
2017-12-06T10:25:12.818Z,7.66
2017-12-06T10:26:40.107Z,7.65
2017-12-06T10:28:08.547Z,7.64
2017-12-06T10:29:34.766Z,7.62
2017-12-06T10:31:03.227Z,7.62
2017-12-06T10:32:30.587Z,7.62
2017-12-06T10:33:57.102Z,7.60
2017-12-06T10:35:24.424Z,7.60
2017-12-06T10:36:52.801Z,7.62
2017-12-06T10:38:19.072Z,7.65
2017-12-06T10:39:47.406Z,7.63
2017-12-06T10:41:13.667Z,7.62
2017-12-06T10:42:41.100Z,7.62
2017-12-06T10:44:09.215Z,7.62
2017-12-06T10:45:35.429Z,7.63
2017-12-06T10:47:02.418Z,7.63
2017-12-06T10:48:29.705Z,7.63
2017-12-06T10:49:56.919Z,7.64
2017-12-06T10:51:24.230Z,7.63
2017-12-06T10:52:51.448Z,7.64
2017-12-06T10:54:19.766Z,7.65
2017-12-06T10:55:46.110Z,7.65
2017-12-06T10:57:13.459Z,7.64
2017-12-06T10:58:40.618Z,7.65
2017-12-06T11:00:07.825Z,7.67
2017-12-06T11:01:35.074Z,7.69
2017-12-06T11:03:02.366Z,7.70
2017-12-06T11:04:29.494Z,7.70
2017-12-06T11:05:58.010Z,7.69
2017-12-06T11:07:24.290Z,7.69
2017-12-06T11:08:52.686Z,7.70
2017-12-06T11:10:18.729Z,7.72
2017-12-06T11:11:46.068Z,7.73
2017-12-06T11:13:14.347Z,7.73
2017-12-06T11:14:40.491Z,7.75
2017-12-06T11:16:07.807Z,7.76
2017-12-06T11:17:36.038Z,7.78
2017-12-06T11:19:02.198Z,7.78
2017-12-06T11:20:30.511Z,7.80
2017-12-06T11:21:57.829Z,7.82
2017-12-06T11:23:24.219Z,7.84
2017-12-06T11:24:51.532Z,7.87
2017-12-06T11:26:19.836Z,7.87
2017-12-06T11:27:46.048Z,7.86
2017-12-06T11:29:13.434Z,7.87
2017-12-06T11:30:40.773Z,7.88
2017-12-06T11:32:09.120Z,7.86
2017-12-06T11:33:36.162Z,7.84
2017-12-06T11:35:03.289Z,7.84
2017-12-06T11:36:30.626Z,7.85
2017-12-06T11:37:56.760Z,7.86
2017-12-06T11:39:24.018Z,7.87
2017-12-06T11:40:51.369Z,7.87
2017-12-06T11:42:18.743Z,7.87
2017-12-06T11:43:45.942Z,7.87
2017-12-06T11:45:13.315Z,7.85
2017-12-06T11:46:41.592Z,7.86
2017-12-06T11:48:07.805Z,7.86
2017-12-06T11:49:35.164Z,7.87
2017-12-06T11:51:02.181Z,7.85
2017-12-06T11:52:29.444Z,7.87
2017-12-06T11:53:56.876Z,7.87
2017-12-06T11:55:24.243Z,7.88
2017-12-06T11:56:52.553Z,7.88
2017-12-06T11:58:18.954Z,7.89
2017-12-06T11:59:46.185Z,7.88
2017-12-06T12:01:13.598Z,7.86
2017-12-06T12:02:40.896Z,7.87
2017-12-06T12:04:08.239Z,7.87
2017-12-06T12:05:35.691Z,7.87
2017-12-06T12:07:02.864Z,7.87
2017-12-06T12:08:30.237Z,7.88
2017-12-06T12:09:58.663Z,7.88
2017-12-06T12:11:24.786Z,7.89
2017-12-06T12:12:52.208Z,7.88
2017-12-06T12:14:19.638Z,7.90
2017-12-06T12:15:47.006Z,7.90
2017-12-06T12:17:14.206Z,7.90
2017-12-06T12:18:42.723Z,7.91
2017-12-06T12:20:09.056Z,7.92
2017-12-06T12:21:36.304Z,7.93
2017-12-06T12:23:03.613Z,7.93
2017-12-06T12:24:31.041Z,7.93
2017-12-06T12:25:59.277Z,7.93
2017-12-06T12:27:25.322Z,7.94
2017-12-06T12:28:52.593Z,7.96
2017-12-06T12:30:21.038Z,7.97
2017-12-06T12:31:48.578Z,7.98
2017-12-06T12:33:14.857Z,8.01
2017-12-06T12:34:42.150Z,8.02
2017-12-06T12:36:09.420Z,8.03
2017-12-06T12:37:36.601Z,8.03
2017-12-06T12:39:03.845Z,8.03
2017-12-06T12:40:31.986Z,8.04
2017-12-06T12:41:58.425Z,8.04
2017-12-06T12:43:26.907Z,8.04
2017-12-06T12:44:53.227Z,8.06
2017-12-06T12:46:20.545Z,8.07
2017-12-06T12:47:47.852Z,8.07
2017-12-06T12:49:15.170Z,8.09
2017-12-06T12:50:42.569Z,8.11
2017-12-06T12:52:09.993Z,8.10
2017-12-06T12:53:37.078Z,8.11
2017-12-06T12:55:04.161Z,8.12
2017-12-06T12:56:31.584Z,8.11
2017-12-06T12:57:58.808Z,8.11
2017-12-06T12:59:27.205Z,8.10
2017-12-06T13:00:53.712Z,8.11
2017-12-06T13:02:21.190Z,8.11
2017-12-06T13:03:48.592Z,8.11
2017-12-06T13:05:15.905Z,8.12
2017-12-06T13:06:43.372Z,8.13
2017-12-06T13:08:11.683Z,8.14
2017-12-06T13:09:38.028Z,8.16
2017-12-06T13:11:05.232Z,8.17
2017-12-06T13:12:32.432Z,8.17
2017-12-06T13:14:02.897Z,8.19
2017-12-06T13:15:27.010Z,8.18
2017-12-06T13:16:57.372Z,8.18
2017-12-06T13:18:21.658Z,8.19
2017-12-06T13:19:49.150Z,8.19
2017-12-06T13:21:17.429Z,8.21
2017-12-06T13:22:43.830Z,8.21
2017-12-06T13:24:11.048Z,8.21
2017-12-06T13:25:38.331Z,8.21
2017-12-06T13:27:05.603Z,8.21
2017-12-06T13:28:33.578Z,8.19
2017-12-06T13:29:59.726Z,8.19
2017-12-06T13:31:28.109Z,8.20
2017-12-06T13:34:21.662Z,8.20
2017-12-06T13:35:50.169Z,8.20
2017-12-06T13:37:16.469Z,8.19
2017-12-06T13:38:43.746Z,8.19
2017-12-06T13:40:12.151Z,8.19
2017-12-06T13:41:38.336Z,8.21
2017-12-06T13:43:05.681Z,8.21
2017-12-06T13:44:32.866Z,8.21
2017-12-06T13:46:00.284Z,8.21
2017-12-06T13:47:27.582Z,8.22
2017-12-06T13:48:55.000Z,8.22
2017-12-06T13:50:22.421Z,8.22
2017-12-06T13:51:49.650Z,8.23
2017-12-06T13:53:17.985Z,8.24
2017-12-06T13:54:44.245Z,8.23
2017-12-06T13:56:12.662Z,8.25
2017-12-06T13:57:39.054Z,8.25
2017-12-06T13:59:07.402Z,8.26
2017-12-06T14:00:33.504Z,8.26
2017-12-06T14:02:00.776Z,8.25
2017-12-06T14:03:29.232Z,8.27
2017-12-06T14:04:55.574Z,8.26
2017-12-06T14:06:23.832Z,8.26
2017-12-06T14:07:50.067Z,8.25
2017-12-06T14:09:18.498Z,8.25
2017-12-06T14:10:45.649Z,8.26
2017-12-06T14:12:12.933Z,8.26
2017-12-06T14:13:39.136Z,8.25
2017-12-06T14:15:06.510Z,8.25
2017-12-06T14:16:33.803Z,8.24
2017-12-06T14:18:00.981Z,8.26
2017-12-06T14:19:28.275Z,8.25
2017-12-06T14:20:56.636Z,8.25
2017-12-06T14:22:23.078Z,8.25
2017-12-06T14:23:51.414Z,8.26
2017-12-06T14:25:17.619Z,8.25
2017-12-06T14:26:46.013Z,8.24
2017-12-06T14:28:12.140Z,8.25
2017-12-06T14:29:39.494Z,8.25
2017-12-06T14:31:07.700Z,8.26
2017-12-06T14:32:33.814Z,8.24
2017-12-06T14:34:01.180Z,8.24
2017-12-06T14:35:28.625Z,8.24
2017-12-06T14:36:56.034Z,8.23
2017-12-06T14:38:23.356Z,8.23
2017-12-06T14:39:51.792Z,8.22
2017-12-06T14:41:18.080Z,8.21
2017-12-06T14:42:45.284Z,8.20
2017-12-06T14:44:12.524Z,8.21
2017-12-06T14:45:39.696Z,8.21
2017-12-06T14:47:07.044Z,8.21
2017-12-06T14:48:34.399Z,8.22
2017-12-06T14:50:01.831Z,8.22
2017-12-06T14:51:29.080Z,8.21
2017-12-06T14:52:56.397Z,8.21
2017-12-06T14:54:24.735Z,8.22
2017-12-06T14:55:51.940Z,8.22
2017-12-06T14:57:18.308Z,8.24
2017-12-06T14:58:46.426Z,8.24
2017-12-06T15:00:13.956Z,8.24
2017-12-06T15:01:40.268Z,8.25
2017-12-06T15:03:07.526Z,8.25
2017-12-06T15:04:34.658Z,8.24
2017-12-06T15:06:01.874Z,8.24
2017-12-06T15:07:29.270Z,8.24
2017-12-06T15:08:57.792Z,8.24
2017-12-06T15:10:24.027Z,8.25
2017-12-06T15:11:52.377Z,8.23
2017-12-06T15:13:19.775Z,8.23
2017-12-06T15:14:46.955Z,8.23
2017-12-06T15:16:13.213Z,8.23
2017-12-06T15:17:40.702Z,8.24
2017-12-06T15:19:08.973Z,8.24
2017-12-06T15:20:35.148Z,8.23
2017-12-06T15:22:02.081Z,8.23
2017-12-06T15:23:30.354Z,8.23
2017-12-06T15:24:57.733Z,8.22
2017-12-06T15:26:24.023Z,8.21
2017-12-06T15:27:52.227Z,8.22
2017-12-06T15:29:18.613Z,8.21
2017-12-06T15:30:47.023Z,8.20
2017-12-06T15:32:14.268Z,8.21
2017-12-06T15:33:40.573Z,8.20
2017-12-06T15:35:08.896Z,8.19
2017-12-06T15:36:36.097Z,8.19
2017-12-06T15:38:02.950Z,8.19
2017-12-06T15:39:30.558Z,8.18
2017-12-06T15:40:56.907Z,8.20
2017-12-06T15:42:24.374Z,8.22
2017-12-06T15:43:52.880Z,8.23
2017-12-06T15:45:18.922Z,8.25
2017-12-06T15:46:46.157Z,8.23
2017-12-06T15:48:13.464Z,8.22
2017-12-06T15:49:40.841Z,8.22
2017-12-06T15:51:08.162Z,8.22
2017-12-06T15:52:36.231Z,8.23
2017-12-06T15:54:03.356Z,8.21
2017-12-06T15:55:30.768Z,8.21
2017-12-06T15:56:57.227Z,8.22
2017-12-06T15:58:25.690Z,8.21
2017-12-06T15:59:53.080Z,8.22
2017-12-06T16:01:20.419Z,8.20
2017-12-06T16:02:46.636Z,8.19
2017-12-06T16:04:14.822Z,8.18
2017-12-06T16:05:42.025Z,8.19
2017-12-06T16:07:09.392Z,8.20
2017-12-06T16:08:36.740Z,8.21
2017-12-06T16:10:02.938Z,8.20
2017-12-06T16:11:30.353Z,8.19
2017-12-06T16:12:57.552Z,8.20
2017-12-06T16:14:25.935Z,8.19
2017-12-06T16:15:53.188Z,8.19
2017-12-06T16:17:19.711Z,8.19
2017-12-06T16:18:47.041Z,8.19
2017-12-06T16:20:14.414Z,8.18
2017-12-06T16:21:42.475Z,8.16
2017-12-06T16:23:08.751Z,8.18
2017-12-06T16:24:36.186Z,8.15
2017-12-06T16:26:04.330Z,8.15
2017-12-06T16:27:30.632Z,8.13
2017-12-06T16:28:58.041Z,8.12
2017-12-06T16:30:25.245Z,8.12
2017-12-06T16:31:53.629Z,8.13
2017-12-06T16:33:19.811Z,8.13
2017-12-06T16:34:48.165Z,8.12
2017-12-06T16:36:15.687Z,8.13
2017-12-06T16:37:41.878Z,8.15
2017-12-06T16:39:09.068Z,8.13
2017-12-06T16:40:36.429Z,8.15
2017-12-06T16:42:03.786Z,8.15
2017-12-06T16:43:31.151Z,8.15
2017-12-06T16:44:58.466Z,8.14
2017-12-06T16:46:25.879Z,8.15
2017-12-06T16:47:53.031Z,8.16
2017-12-06T16:49:21.454Z,8.17
2017-12-06T16:50:47.615Z,8.15
2017-12-06T16:52:15.852Z,8.15
2017-12-06T16:53:43.134Z,8.15
2017-12-06T16:55:09.371Z,8.14
2017-12-06T16:56:36.687Z,8.13
2017-12-06T16:58:03.904Z,8.11
2017-12-06T16:59:31.378Z,8.11
2017-12-06T17:00:58.718Z,8.13
2017-12-06T17:02:26.095Z,8.11
2017-12-06T17:03:53.422Z,8.12
2017-12-06T17:05:21.699Z,8.12
2017-12-06T17:06:48.068Z,8.11
2017-12-06T17:08:15.190Z,8.11
2017-12-06T17:09:43.640Z,8.12
2017-12-06T17:11:10.743Z,8.14
2017-12-06T17:12:37.179Z,8.14
2017-12-06T17:14:04.500Z,8.15
2017-12-06T17:15:32.687Z,8.16
2017-12-06T17:16:59.048Z,8.16
2017-12-06T17:18:26.388Z,8.14
2017-12-06T17:19:54.688Z,8.14
2017-12-06T17:21:22.197Z,8.14
2017-12-06T17:22:48.477Z,8.13
2017-12-06T17:24:16.763Z,8.14
2017-12-06T17:25:42.905Z,8.14
2017-12-06T17:27:10.201Z,8.13
2017-12-06T17:28:37.387Z,8.13
2017-12-06T17:30:05.560Z,8.15
2017-12-06T17:31:32.892Z,8.15
2017-12-06T17:32:59.108Z,8.13
2017-12-06T17:34:26.447Z,8.14
2017-12-06T17:35:53.936Z,8.13
2017-12-06T17:37:21.306Z,8.13
2017-12-06T17:38:49.777Z,8.12
2017-12-06T17:40:17.098Z,8.13
2017-12-06T17:41:44.466Z,8.13
2017-12-06T17:43:11.738Z,8.15
2017-12-06T17:44:37.742Z,8.15
2017-12-06T17:46:05.035Z,8.16
2017-12-06T17:47:33.213Z,8.17
2017-12-06T17:48:59.415Z,8.18
2017-12-06T17:50:27.559Z,8.19
2017-12-06T17:51:53.764Z,8.20
2017-12-06T17:53:21.988Z,8.22
2017-12-06T17:54:48.329Z,8.22
2017-12-06T17:56:15.564Z,8.22
2017-12-06T17:57:43.796Z,8.21
2017-12-06T17:59:10.835Z,8.21
2017-12-06T18:00:37.905Z,8.21
2017-12-06T18:02:04.158Z,8.20
2017-12-06T18:03:31.499Z,8.20
2017-12-06T18:04:58.857Z,8.19
2017-12-06T18:06:26.081Z,8.20
2017-12-06T18:07:53.456Z,8.19
2017-12-06T18:09:22.006Z,8.19
2017-12-06T18:10:48.070Z,8.19
2017-12-06T18:12:15.466Z,8.19
2017-12-06T18:13:43.446Z,8.19
2017-12-06T18:15:10.666Z,8.18
2017-12-06T18:16:37.945Z,8.19
2017-12-06T18:18:03.758Z,8.20
2017-12-06T18:19:30.982Z,8.19
2017-12-06T18:20:58.233Z,8.18
2017-12-06T18:22:25.503Z,8.19
2017-12-06T18:23:52.747Z,8.18
2017-12-06T18:25:20.120Z,8.19
2017-12-06T18:26:47.441Z,8.18
2017-12-06T18:28:14.876Z,8.17
2017-12-06T18:29:42.187Z,8.18
2017-12-06T18:31:10.597Z,8.18
2017-12-06T18:32:37.830Z,8.17
2017-12-06T18:34:03.936Z,8.17
2017-12-06T18:35:31.242Z,8.17
2017-12-06T18:36:59.562Z,8.17
2017-12-06T18:38:26.825Z,8.17
2017-12-06T18:39:53.275Z,8.17
2017-12-06T18:41:21.605Z,8.16
2017-12-06T18:42:47.991Z,8.17
2017-12-06T18:44:15.084Z,8.15
2017-12-06T18:45:42.301Z,8.16
2017-12-06T18:47:09.615Z,8.16
2017-12-06T18:48:36.751Z,8.17
2017-12-06T18:50:04.998Z,8.16
2017-12-06T18:51:31.462Z,8.15
2017-12-06T18:52:58.898Z,8.15
2017-12-06T18:54:26.280Z,8.15
2017-12-06T18:55:53.595Z,8.12
2017-12-06T18:57:20.971Z,8.12
2017-12-06T18:58:48.461Z,8.12
2017-12-06T19:00:15.714Z,8.10
2017-12-06T19:01:43.117Z,8.09
2017-12-06T19:03:10.464Z,8.10
2017-12-06T19:04:38.851Z,8.09
2017-12-06T19:06:05.978Z,8.09
2017-12-06T19:07:33.456Z,8.09
2017-12-06T19:09:00.736Z,8.10
2017-12-06T19:10:26.941Z,8.10
2017-12-06T19:11:55.296Z,8.11
2017-12-06T19:13:22.785Z,8.12
2017-12-06T19:14:49.003Z,8.12
2017-12-06T19:16:16.224Z,8.12
2017-12-06T19:17:43.526Z,8.11
2017-12-06T19:19:11.635Z,8.11
2017-12-06T19:20:38.045Z,8.11
2017-12-06T19:22:05.244Z,8.12
2017-12-06T19:23:32.433Z,8.13